Terminal Aerodrome Forecast
Issued by NWS Billings, MT

Home | Current Version | Previous Version | Text Only | Print | Product List | Glossary On
Versions: 1 2 3 4 5 6 7 8 9 10 11 12 13 14 15 16 17 18 19 20 21 22 23 24 25 26 27 28 29 30 31 32 33 34 35 36 37 38 39 40 41 42 43 44
000
FTUS45 KBYZ 231443 AAB
TAFSHR
TAF AMD
KSHR 231443Z 2315/2412 VRB06KT 6SM -SN BKN004
     FM231800 01011KT 1/2SM SN FG BKN004 OVC012
     FM240200 VRB06KT 3SM -SN BR SCT007 OVC015=

USA.gov is the U.S. government's official web portal to all federal, state and local government web resources and services.